Perry, FL

3:50 PM EDT on July 31, 2014 (GMT -0400)
Cross City (KCTY) Elev 43 ft | 29.64 °N, 83.10 °W | Change Station

Current weather conditions updated 57 minutes ago

Partly Cloudy
Partly Cloudy
92 °F
Feels Like 92 °F
N
6
Wind Variable Wind from North
Gusts 10 mph

Today is forecast to be nearly the same temperature as yesterday.

Today
High -- | Low -- °F
--% Chance of Precip.
Yesterday
High -- | Low -- °F
Precip. -- in
6:52 AM 8:28 PM
Waxing Crescent, 20% visible
Pressure 29.98 in
Visibility -9999.0 miles
Clouds
Heat Index 92 °F
Dew Point 62 °F
Humidity 37%
Rainfall 0.03 in
Snow Depth Not available.
UV Not available.
Pollen 4.10 out of 12
Air Quality Not available.
Flu Activity Not available.
METAR KCTY 311853Z AUTO 01005KT 33/17 A2998 RMK AO1 SLP150 T03330167

More Conditions Fewer Conditions

Pressure 29.98 in
Visibility -9999.0 miles
Clouds
Heat Index 92 °F
Dew Point 62 °F
Humidity 37%
Rainfall 0.03 in
Snow Depth Not available.
UV Not available.
Pollen 4.10 out of 12
Air Quality Not available.
Flu Activity Not available.
METAR KCTY 311853Z AUTO 01005KT 33/17 A2998 RMK AO1 SLP150 T03330167

More Conditions Fewer Conditions

10-Day Weather Forecast

Almanac

Astronomy

Jul. 31, 2014 Rise Set
Actual Time 6:52 AM EDT 8:28 PM EDT
Civil Twilight 6:26 AM EDT 8:54 PM EDT
Nautical Twilight 5:55 AM EDT 9:25 PM EDT
Astronomical Twilight 5:22 AM EDT 9:58 PM EDT
Moon 10:56 AM EDT 11:05 PM EDT
Length of Visible Light 14h 27m
Length of Day
13h 35m
Tomorrow will be 1m 20s shorter.
Waxing Crescent, 20% of the Moon is Illuminated
Today
Waxing Crescent
Aug 3
First Quarter
Aug 10
Full
Aug 17
Last Quarter
Aug 25
New

Today's Extremes

State Highs State Lows

Community

WunderPhotos

Upload Photos

1,739,438 photos uploaded!

Nearby

Snow Depth

Station Depth Elevation
No new snow has been reported.

Earthquake Activity

City Distance Mag. Time & Date
No recent earthquake activity has been reported nearby.
Minimum magnitude displayed is 2.5.

Coastal Water Temperatures

Place Temperature
Apalachicola, FL 86.0 °F
Panama City, FL 86.0 °F

Nearby Weather Stations

Station Location Temp. Heat Index Dew Point Humidity Wind Precip. Elev Updated Type
MARITIME , Salem, FL 85 °F 86 °F 62 °F 46% WSW  at  10 mph 0.00 in / hr 6 ft 3:00 PM EDT MADIS
Terry Farm, Lee, FL 93.7 °F 95 °F 63 °F 36% NW  at  5.0 mph 0.00 in / hr 118 ft 3:48 PM EDT Normal
Roger Sink Road, Madison, FL 94.1 °F 96 °F 64 °F 37% ESE  at  2.7 mph - / hr 89 ft 3:48 PM EDT Normal

Show More Stations Show Fewer Stations